sensor_id;sensor_type;location;lat;lon;timestamp;P1;durP1;ratioP1;P2;durP2;ratioP2
45206;SDS011;30950;53.086;21.576;2023-02-11T00:01:16;72.35;;;33.42;;
45206;SDS011;30950;53.086;21.576;2023-02-11T00:03:56;66.30;;;34.33;;
45206;SDS011;30950;53.086;21.576;2023-02-11T00:06:26;60.40;;;31.80;;
45206;SDS011;30950;53.086;21.576;2023-02-11T00:08:54;58.05;;;30.58;;
45206;SDS011;30950;53.086;21.576;2023-02-11T00:11:22;60.88;;;29.77;;
45206;SDS011;30950;53.086;21.576;2023-02-11T00:13:57;60.10;;;30.13;;
45206;SDS011;30950;53.086;21.576;2023-02-11T00:16:26;55.65;;;30.38;;
45206;SDS011;30950;53.086;21.576;2023-02-11T00:18:55;52.38;;;29.73;;
45206;SDS011;30950;53.086;21.576;2023-02-11T00:21:23;54.22;;;28.80;;
45206;SDS011;30950;53.086;21.576;2023-02-11T00:23:52;53.83;;;27.10;;
45206;SDS011;30950;53.086;21.576;2023-02-11T00:26:22;50.80;;;26.20;;
45206;SDS011;30950;53.086;21.576;2023-02-11T00:28:51;57.30;;;29.27;;
45206;SDS011;30950;53.086;21.576;2023-02-11T00:31:20;47.13;;;24.95;;
45206;SDS011;30950;53.086;21.576;2023-02-11T00:33:51;47.05;;;26.27;;
45206;SDS011;30950;53.086;21.576;2023-02-11T00:36:21;53.42;;;27.08;;
45206;SDS011;30950;53.086;21.576;2023-02-11T00:38:50;49.38;;;27.20;;
45206;SDS011;30950;53.086;21.576;2023-02-11T00:41:19;46.45;;;27.02;;
45206;SDS011;30950;53.086;21.576;2023-02-11T00:43:48;48.25;;;26.88;;
45206;SDS011;30950;53.086;21.576;2023-02-11T00:46:18;49.45;;;24.95;;
45206;SDS011;30950;53.086;21.576;2023-02-11T00:48:46;49.70;;;28.52;;
45206;SDS011;30950;53.086;21.576;2023-02-11T00:51:13;53.70;;;25.95;;
45206;SDS011;30950;53.086;21.576;2023-02-11T00:53:41;48.38;;;25.67;;
45206;SDS011;30950;53.086;21.576;2023-02-11T00:56:08;51.30;;;24.77;;
45206;SDS011;30950;53.086;21.576;2023-02-11T00:58:36;45.00;;;24.15;;
45206;SDS011;30950;53.086;21.576;2023-02-11T01:01:03;48.58;;;26.17;;
45206;SDS011;30950;53.086;21.576;2023-02-11T01:03:31;42.90;;;21.27;;
45206;SDS011;30950;53.086;21.576;2023-02-11T01:05:59;43.08;;;24.02;;
45206;SDS011;30950;53.086;21.576;2023-02-11T01:08:26;48.13;;;25.77;;
45206;SDS011;30950;53.086;21.576;2023-02-11T01:10:55;43.72;;;23.85;;
45206;SDS011;30950;53.086;21.576;2023-02-11T01:13:31;52.03;;;27.57;;
45206;SDS011;30950;53.086;21.576;2023-02-11T01:15:59;45.63;;;22.77;;
45206;SDS011;30950;53.086;21.576;2023-02-11T01:18:26;48.22;;;24.55;;
45206;SDS011;30950;53.086;21.576;2023-02-11T01:20:54;47.58;;;23.27;;
45206;SDS011;30950;53.086;21.576;2023-02-11T01:23:22;40.28;;;21.17;;
45206;SDS011;30950;53.086;21.576;2023-02-11T01:25:49;44.03;;;23.30;;
45206;SDS011;30950;53.086;21.576;2023-02-11T01:28:22;45.60;;;23.17;;
45206;SDS011;30950;53.086;21.576;2023-02-11T01:30:51;44.90;;;22.80;;
45206;SDS011;30950;53.086;21.576;2023-02-11T01:33:19;36.95;;;18.83;;
45206;SDS011;30950;53.086;21.576;2023-02-11T01:35:47;46.25;;;20.58;;
45206;SDS011;30950;53.086;21.576;2023-02-11T01:38:19;36.72;;;21.25;;
45206;SDS011;30950;53.086;21.576;2023-02-11T01:40:56;42.03;;;22.67;;
45206;SDS011;30950;53.086;21.576;2023-02-11T01:43:26;39.75;;;21.30;;
45206;SDS011;30950;53.086;21.576;2023-02-11T01:48:44;39.58;;;19.00;;
45206;SDS011;30950;53.086;21.576;2023-02-11T01:51:23;36.75;;;20.67;;
45206;SDS011;30950;53.086;21.576;2023-02-11T01:53:54;35.38;;;18.05;;
45206;SDS011;30950;53.086;21.576;2023-02-11T01:56:45;44.40;;;22.23;;
45206;SDS011;30950;53.086;21.576;2023-02-11T01:59:38;37.10;;;18.73;;
45206;SDS011;30950;53.086;21.576;2023-02-11T02:02:10;35.13;;;18.75;;
45206;SDS011;30950;53.086;21.576;2023-02-11T02:04:43;45.63;;;21.95;;
45206;SDS011;30950;53.086;21.576;2023-02-11T02:07:24;40.75;;;21.00;;
45206;SDS011;30950;53.086;21.576;2023-02-11T02:10:08;42.38;;;19.60;;
45206;SDS011;30950;53.086;21.576;2023-02-11T02:12:42;38.17;;;20.75;;
45206;SDS011;30950;53.086;21.576;2023-02-11T02:15:20;37.80;;;19.17;;
45206;SDS011;30950;53.086;21.576;2023-02-11T02:31:53;46.13;;;23.10;;
45206;SDS011;30950;53.086;21.576;2023-02-11T02:40:06;40.88;;;23.20;;
45206;SDS011;30950;53.086;21.576;2023-02-11T02:42:38;45.05;;;22.65;;
45206;SDS011;30950;53.086;21.576;2023-02-11T02:45:07;46.97;;;23.95;;
45206;SDS011;30950;53.086;21.576;2023-02-11T02:47:36;47.97;;;23.75;;
45206;SDS011;30950;53.086;21.576;2023-02-11T02:50:04;46.45;;;25.17;;
45206;SDS011;30950;53.086;21.576;2023-02-11T02:52:34;50.50;;;23.23;;
45206;SDS011;30950;53.086;21.576;2023-02-11T02:55:23;50.17;;;25.38;;
45206;SDS011;30950;53.086;21.576;2023-02-11T03:00:30;44.83;;;22.15;;
45206;SDS011;30950;53.086;21.576;2023-02-11T03:06:13;47.50;;;23.98;;
45206;SDS011;30950;53.086;21.576;2023-02-11T03:09:05;46.05;;;23.27;;
45206;SDS011;30950;53.086;21.576;2023-02-11T03:11:38;46.25;;;24.70;;
45206;SDS011;30950;53.086;21.576;2023-02-11T03:14:07;45.38;;;22.98;;
45206;SDS011;30950;53.086;21.576;2023-02-11T03:16:37;48.17;;;24.35;;
45206;SDS011;30950;53.086;21.576;2023-02-11T03:19:12;46.90;;;24.90;;
45206;SDS011;30950;53.086;21.576;2023-02-11T03:21:44;48.47;;;24.52;;
45206;SDS011;30950;53.086;21.576;2023-02-11T03:24:16;48.05;;;24.67;;
45206;SDS011;30950;53.086;21.576;2023-02-11T03:26:53;47.38;;;23.48;;
45206;SDS011;30950;53.086;21.576;2023-02-11T03:35:00;54.92;;;25.85;;
45206;SDS011;30950;53.086;21.576;2023-02-11T03:37:39;48.53;;;24.75;;
45206;SDS011;30950;53.086;21.576;2023-02-11T03:40:14;47.53;;;24.10;;
45206;SDS011;30950;53.086;21.576;2023-02-11T03:42:58;51.40;;;24.85;;
45206;SDS011;30950;53.086;21.576;2023-02-11T03:45:44;43.95;;;22.40;;
45206;SDS011;30950;53.086;21.576;2023-02-11T03:48:15;49.80;;;26.42;;
45206;SDS011;30950;53.086;21.576;2023-02-11T03:50:51;45.50;;;24.83;;
45206;SDS011;30950;53.086;21.576;2023-02-11T03:53:21;50.30;;;25.45;;
45206;SDS011;30950;53.086;21.576;2023-02-11T03:55:49;51.42;;;25.98;;
45206;SDS011;30950;53.086;21.576;2023-02-11T03:58:19;49.30;;;23.30;;
45206;SDS011;30950;53.086;21.576;2023-02-11T04:00:48;48.33;;;25.77;;
45206;SDS011;30950;53.086;21.576;2023-02-11T04:03:15;45.00;;;24.50;;
45206;SDS011;30950;53.086;21.576;2023-02-11T04:05:43;44.45;;;22.55;;
45206;SDS011;30950;53.086;21.576;2023-02-11T04:08:10;44.88;;;24.90;;
45206;SDS011;30950;53.086;21.576;2023-02-11T04:10:40;40.40;;;21.65;;
45206;SDS011;30950;53.086;21.576;2023-02-11T04:13:08;43.83;;;21.95;;
45206;SDS011;30950;53.086;21.576;2023-02-11T04:15:35;43.00;;;20.13;;
45206;SDS011;30950;53.086;21.576;2023-02-11T04:18:03;43.92;;;23.58;;
45206;SDS011;30950;53.086;21.576;2023-02-11T04:20:30;43.60;;;22.92;;
45206;SDS011;30950;53.086;21.576;2023-02-11T04:22:58;44.20;;;22.92;;
45206;SDS011;30950;53.086;21.576;2023-02-11T04:25:25;42.42;;;22.27;;
45206;SDS011;30950;53.086;21.576;2023-02-11T04:27:53;42.58;;;21.65;;
45206;SDS011;30950;53.086;21.576;2023-02-11T04:30:20;35.85;;;19.58;;
45206;SDS011;30950;53.086;21.576;2023-02-11T04:32:48;38.80;;;20.95;;
45206;SDS011;30950;53.086;21.576;2023-02-11T04:35:15;37.65;;;20.63;;
45206;SDS011;30950;53.086;21.576;2023-02-11T04:37:42;41.83;;;21.35;;
45206;SDS011;30950;53.086;21.576;2023-02-11T04:40:10;44.65;;;22.65;;
45206;SDS011;30950;53.086;21.576;2023-02-11T04:42:37;40.95;;;20.33;;
45206;SDS011;30950;53.086;21.576;2023-02-11T04:45:04;41.20;;;19.77;;
45206;SDS011;30950;53.086;21.576;2023-02-11T04:47:33;41.30;;;19.95;;
45206;SDS011;30950;53.086;21.576;2023-02-11T04:50:01;37.60;;;20.55;;
45206;SDS011;30950;53.086;21.576;2023-02-11T04:52:29;36.08;;;19.27;;
45206;SDS011;30950;53.086;21.576;2023-02-11T04:54:56;39.00;;;20.33;;
45206;SDS011;30950;53.086;21.576;2023-02-11T04:57:24;34.63;;;19.50;;
45206;SDS011;30950;53.086;21.576;2023-02-11T04:59:51;32.80;;;18.20;;
45206;SDS011;30950;53.086;21.576;2023-02-11T05:02:18;37.13;;;19.48;;
45206;SDS011;30950;53.086;21.576;2023-02-11T05:04:45;38.45;;;19.48;;
45206;SDS011;30950;53.086;21.576;2023-02-11T05:07:13;40.72;;;18.98;;
45206;SDS011;30950;53.086;21.576;2023-02-11T05:09:40;36.15;;;18.95;;
45206;SDS011;30950;53.086;21.576;2023-02-11T05:12:08;36.70;;;18.85;;
45206;SDS011;30950;53.086;21.576;2023-02-11T05:14:35;38.63;;;21.15;;
45206;SDS011;30950;53.086;21.576;2023-02-11T05:17:02;39.25;;;20.55;;
45206;SDS011;30950;53.086;21.576;2023-02-11T05:19:30;42.35;;;18.90;;
45206;SDS011;30950;53.086;21.576;2023-02-11T05:21:57;39.72;;;18.60;;
45206;SDS011;30950;53.086;21.576;2023-02-11T05:24:31;39.15;;;19.48;;
45206;SDS011;30950;53.086;21.576;2023-02-11T05:26:59;31.20;;;17.33;;
45206;SDS011;30950;53.086;21.576;2023-02-11T05:29:27;32.28;;;15.88;;
45206;SDS011;30950;53.086;21.576;2023-02-11T05:31:54;38.28;;;19.48;;
45206;SDS011;30950;53.086;21.576;2023-02-11T05:34:21;33.65;;;18.67;;
45206;SDS011;30950;53.086;21.576;2023-02-11T05:36:49;35.60;;;17.88;;
45206;SDS011;30950;53.086;21.576;2023-02-11T05:39:17;35.63;;;19.45;;
45206;SDS011;30950;53.086;21.576;2023-02-11T05:41:44;34.90;;;20.45;;
45206;SDS011;30950;53.086;21.576;2023-02-11T05:44:12;38.15;;;19.70;;
45206;SDS011;30950;53.086;21.576;2023-02-11T05:46:39;39.95;;;20.55;;
45206;SDS011;30950;53.086;21.576;2023-02-11T05:49:06;39.08;;;20.80;;
45206;SDS011;30950;53.086;21.576;2023-02-11T05:51:34;41.00;;;19.30;;
45206;SDS011;30950;53.086;21.576;2023-02-11T05:54:01;41.25;;;21.83;;
45206;SDS011;30950;53.086;21.576;2023-02-11T05:56:29;36.00;;;19.77;;
45206;SDS011;30950;53.086;21.576;2023-02-11T05:58:57;42.70;;;22.38;;
45206;SDS011;30950;53.086;21.576;2023-02-11T06:01:25;41.53;;;21.10;;
45206;SDS011;30950;53.086;21.576;2023-02-11T06:03:53;44.45;;;21.92;;
45206;SDS011;30950;53.086;21.576;2023-02-11T06:06:20;51.58;;;25.42;;
45206;SDS011;30950;53.086;21.576;2023-02-11T06:08:48;41.05;;;20.90;;
45206;SDS011;30950;53.086;21.576;2023-02-11T06:11:15;42.50;;;22.92;;
45206;SDS011;30950;53.086;21.576;2023-02-11T06:13:43;41.53;;;23.27;;
45206;SDS011;30950;53.086;21.576;2023-02-11T06:16:11;44.60;;;23.63;;
45206;SDS011;30950;53.086;21.576;2023-02-11T06:18:38;47.10;;;24.65;;
45206;SDS011;30950;53.086;21.576;2023-02-11T06:21:06;44.20;;;24.67;;
45206;SDS011;30950;53.086;21.576;2023-02-11T06:23:34;43.75;;;21.88;;
45206;SDS011;30950;53.086;21.576;2023-02-11T06:26:03;41.90;;;23.00;;
45206;SDS011;30950;53.086;21.576;2023-02-11T06:28:31;44.58;;;25.13;;
45206;SDS011;30950;53.086;21.576;2023-02-11T06:31:03;47.95;;;26.33;;
45206;SDS011;30950;53.086;21.576;2023-02-11T06:33:33;48.33;;;23.77;;
45206;SDS011;30950;53.086;21.576;2023-02-11T06:36:01;49.83;;;26.55;;
45206;SDS011;30950;53.086;21.576;2023-02-11T06:38:28;46.70;;;25.83;;
45206;SDS011;30950;53.086;21.576;2023-02-11T06:40:55;47.08;;;25.88;;
45206;SDS011;30950;53.086;21.576;2023-02-11T06:43:22;53.03;;;27.90;;
45206;SDS011;30950;53.086;21.576;2023-02-11T06:45:53;52.45;;;25.45;;
45206;SDS011;30950;53.086;21.576;2023-02-11T06:48:21;53.00;;;27.70;;
45206;SDS011;30950;53.086;21.576;2023-02-11T06:50:49;56.67;;;26.95;;
45206;SDS011;30950;53.086;21.576;2023-02-11T06:53:16;46.55;;;23.77;;
45206;SDS011;30950;53.086;21.576;2023-02-11T06:55:44;47.13;;;26.63;;
45206;SDS011;30950;53.086;21.576;2023-02-11T06:58:11;50.35;;;24.90;;
45206;SDS011;30950;53.086;21.576;2023-02-11T07:00:38;52.38;;;25.98;;
45206;SDS011;30950;53.086;21.576;2023-02-11T07:03:06;56.10;;;27.67;;
45206;SDS011;30950;53.086;21.576;2023-02-11T07:05:34;67.05;;;36.30;;
45206;SDS011;30950;53.086;21.576;2023-02-11T07:08:02;64.43;;;39.20;;
45206;SDS011;30950;53.086;21.576;2023-02-11T07:10:30;96.93;;;55.97;;
45206;SDS011;30950;53.086;21.576;2023-02-11T07:12:59;59.63;;;33.80;;
45206;SDS011;30950;53.086;21.576;2023-02-11T07:15:26;85.28;;;44.30;;
45206;SDS011;30950;53.086;21.576;2023-02-11T07:17:53;59.85;;;32.15;;
45206;SDS011;30950;53.086;21.576;2023-02-11T07:20:21;48.95;;;27.17;;
45206;SDS011;30950;53.086;21.576;2023-02-11T07:22:48;57.63;;;30.95;;
45206;SDS011;30950;53.086;21.576;2023-02-11T07:25:16;66.70;;;34.92;;
45206;SDS011;30950;53.086;21.576;2023-02-11T07:27:43;73.38;;;40.97;;
45206;SDS011;30950;53.086;21.576;2023-02-11T07:30:11;68.90;;;35.80;;
45206;SDS011;30950;53.086;21.576;2023-02-11T07:32:38;75.40;;;35.97;;
45206;SDS011;30950;53.086;21.576;2023-02-11T07:35:06;62.60;;;33.67;;
45206;SDS011;30950;53.086;21.576;2023-02-11T07:37:34;62.15;;;31.73;;
45206;SDS011;30950;53.086;21.576;2023-02-11T07:40:02;55.50;;;29.67;;
45206;SDS011;30950;53.086;21.576;2023-02-11T07:42:29;59.30;;;30.52;;
45206;SDS011;30950;53.086;21.576;2023-02-11T07:44:57;54.53;;;26.15;;
45206;SDS011;30950;53.086;21.576;2023-02-11T07:47:24;60.55;;;32.45;;
45206;SDS011;30950;53.086;21.576;2023-02-11T07:49:51;55.60;;;29.10;;
45206;SDS011;30950;53.086;21.576;2023-02-11T07:52:22;58.97;;;31.63;;
45206;SDS011;30950;53.086;21.576;2023-02-11T07:54:49;53.03;;;28.25;;
45206;SDS011;30950;53.086;21.576;2023-02-11T07:57:17;57.97;;;33.70;;
45206;SDS011;30950;53.086;21.576;2023-02-11T07:59:44;99.38;;;48.03;;
45206;SDS011;30950;53.086;21.576;2023-02-11T08:02:11;240.57;;;116.53;;
45206;SDS011;30950;53.086;21.576;2023-02-11T08:04:39;111.88;;;57.63;;
45206;SDS011;30950;53.086;21.576;2023-02-11T08:07:06;68.00;;;34.67;;
45206;SDS011;30950;53.086;21.576;2023-02-11T08:09:34;70.95;;;41.28;;
45206;SDS011;30950;53.086;21.576;2023-02-11T08:12:01;59.00;;;37.38;;
45206;SDS011;30950;53.086;21.576;2023-02-11T08:14:29;52.30;;;28.88;;
45206;SDS011;30950;53.086;21.576;2023-02-11T08:16:58;52.20;;;29.33;;
45206;SDS011;30950;53.086;21.576;2023-02-11T08:19:25;66.32;;;32.47;;
45206;SDS011;30950;53.086;21.576;2023-02-11T08:21:56;54.10;;;30.80;;
45206;SDS011;30950;53.086;21.576;2023-02-11T08:24:25;58.13;;;31.98;;
45206;SDS011;30950;53.086;21.576;2023-02-11T08:26:52;55.28;;;35.10;;
45206;SDS011;30950;53.086;21.576;2023-02-11T08:29:20;55.13;;;29.10;;
45206;SDS011;30950;53.086;21.576;2023-02-11T08:31:47;55.03;;;29.80;;
45206;SDS011;30950;53.086;21.576;2023-02-11T08:34:15;53.30;;;28.52;;
45206;SDS011;30950;53.086;21.576;2023-02-11T08:36:45;56.67;;;30.75;;
45206;SDS011;30950;53.086;21.576;2023-02-11T08:39:15;57.20;;;31.20;;
45206;SDS011;30950;53.086;21.576;2023-02-11T08:41:47;55.08;;;32.50;;
45206;SDS011;30950;53.086;21.576;2023-02-11T08:44:17;65.35;;;36.75;;
45206;SDS011;30950;53.086;21.576;2023-02-11T08:46:46;63.78;;;36.28;;
45206;SDS011;30950;53.086;21.576;2023-02-11T08:49:14;59.95;;;33.60;;
45206;SDS011;30950;53.086;21.576;2023-02-11T08:51:42;62.75;;;31.98;;
45206;SDS011;30950;53.086;21.576;2023-02-11T08:54:10;85.72;;;46.53;;
45206;SDS011;30950;53.086;21.576;2023-02-11T08:56:38;68.30;;;35.22;;
45206;SDS011;30950;53.086;21.576;2023-02-11T08:59:07;66.75;;;36.10;;
45206;SDS011;30950;53.086;21.576;2023-02-11T09:01:36;68.25;;;36.03;;
45206;SDS011;30950;53.086;21.576;2023-02-11T09:04:04;59.05;;;31.75;;
45206;SDS011;30950;53.086;21.576;2023-02-11T09:06:31;55.03;;;30.90;;
45206;SDS011;30950;53.086;21.576;2023-02-11T09:08:59;58.05;;;31.55;;
45206;SDS011;30950;53.086;21.576;2023-02-11T09:11:27;62.53;;;34.92;;
45206;SDS011;30950;53.086;21.576;2023-02-11T09:14:03;53.67;;;31.60;;
45206;SDS011;30950;53.086;21.576;2023-02-11T09:16:31;56.25;;;30.90;;
45206;SDS011;30950;53.086;21.576;2023-02-11T09:19:02;52.78;;;29.30;;
45206;SDS011;30950;53.086;21.576;2023-02-11T09:21:30;47.42;;;27.02;;
45206;SDS011;30950;53.086;21.576;2023-02-11T09:23:59;68.50;;;38.55;;
45206;SDS011;30950;53.086;21.576;2023-02-11T09:26:28;69.68;;;37.17;;
45206;SDS011;30950;53.086;21.576;2023-02-11T09:28:57;63.35;;;35.42;;
45206;SDS011;30950;53.086;21.576;2023-02-11T09:31:26;63.28;;;34.97;;
45206;SDS011;30950;53.086;21.576;2023-02-11T09:33:56;65.20;;;37.83;;
45206;SDS011;30950;53.086;21.576;2023-02-11T09:36:26;54.63;;;31.15;;
45206;SDS011;30950;53.086;21.576;2023-02-11T09:38:56;55.47;;;28.20;;
45206;SDS011;30950;53.086;21.576;2023-02-11T09:41:41;53.42;;;29.02;;
45206;SDS011;30950;53.086;21.576;2023-02-11T09:44:20;50.83;;;28.95;;
45206;SDS011;30950;53.086;21.576;2023-02-11T09:46:52;56.13;;;29.40;;
45206;SDS011;30950;53.086;21.576;2023-02-11T09:49:24;41.83;;;23.25;;
45206;SDS011;30950;53.086;21.576;2023-02-11T09:52:13;56.83;;;30.55;;
45206;SDS011;30950;53.086;21.576;2023-02-11T09:54:57;49.95;;;29.17;;
45206;SDS011;30950;53.086;21.576;2023-02-11T09:57:30;50.70;;;28.30;;
45206;SDS011;30950;53.086;21.576;2023-02-11T10:00:16;57.90;;;31.83;;
45206;SDS011;30950;53.086;21.576;2023-02-11T10:02:53;54.33;;;29.20;;
45206;SDS011;30950;53.086;21.576;2023-02-11T10:11:32;47.75;;;27.25;;
45206;SDS011;30950;53.086;21.576;2023-02-11T10:17:03;52.10;;;28.25;;
45206;SDS011;30950;53.086;21.576;2023-02-11T10:22:21;53.05;;;30.40;;
45206;SDS011;30950;53.086;21.576;2023-02-11T10:24:54;54.88;;;28.25;;
45206;SDS011;30950;53.086;21.576;2023-02-11T10:27:33;54.47;;;30.45;;
45206;SDS011;30950;53.086;21.576;2023-02-11T10:33:02;54.22;;;28.13;;
45206;SDS011;30950;53.086;21.576;2023-02-11T10:35:40;50.38;;;27.13;;
45206;SDS011;30950;53.086;21.576;2023-02-11T10:38:09;58.20;;;30.55;;
45206;SDS011;30950;53.086;21.576;2023-02-11T10:40:37;51.03;;;30.88;;
45206;SDS011;30950;53.086;21.576;2023-02-11T10:43:06;50.65;;;28.35;;
45206;SDS011;30950;53.086;21.576;2023-02-11T10:45:46;52.33;;;29.23;;
45206;SDS011;30950;53.086;21.576;2023-02-11T10:53:52;54.13;;;31.67;;
45206;SDS011;30950;53.086;21.576;2023-02-11T10:56:46;56.45;;;30.55;;
45206;SDS011;30950;53.086;21.576;2023-02-11T10:59:20;56.70;;;31.65;;
45206;SDS011;30950;53.086;21.576;2023-02-11T11:02:28;55.17;;;30.73;;
45206;SDS011;30950;53.086;21.576;2023-02-11T11:05:03;56.72;;;32.13;;
45206;SDS011;30950;53.086;21.576;2023-02-11T11:07:40;53.05;;;30.48;;
45206;SDS011;30950;53.086;21.576;2023-02-11T11:10:38;59.40;;;32.42;;
45206;SDS011;30950;53.086;21.576;2023-02-11T11:16:18;57.67;;;30.33;;
45206;SDS011;30950;53.086;21.576;2023-02-11T11:18:41;53.63;;;28.85;;
45206;SDS011;30950;53.086;21.576;2023-02-11T11:21:15;58.83;;;31.38;;
45206;SDS011;30950;53.086;21.576;2023-02-11T11:23:55;56.75;;;31.75;;
45206;SDS011;30950;53.086;21.576;2023-02-11T11:26:28;57.40;;;30.45;;
45206;SDS011;30950;53.086;21.576;2023-02-11T11:29:21;60.67;;;32.67;;
45206;SDS011;30950;53.086;21.576;2023-02-11T11:32:05;59.55;;;31.65;;
45206;SDS011;30950;53.086;21.576;2023-02-11T11:34:39;56.03;;;30.27;;
45206;SDS011;30950;53.086;21.576;2023-02-11T11:37:09;60.95;;;34.83;;
45206;SDS011;30950;53.086;21.576;2023-02-11T11:39:39;60.60;;;32.67;;
45206;SDS011;30950;53.086;21.576;2023-02-11T11:42:24;54.10;;;29.38;;
45206;SDS011;30950;53.086;21.576;2023-02-11T11:44:56;54.08;;;30.35;;
45206;SDS011;30950;53.086;21.576;2023-02-11T11:55:21;46.08;;;27.60;;
45206;SDS011;30950;53.086;21.576;2023-02-11T11:57:55;53.75;;;29.23;;
45206;SDS011;30950;53.086;21.576;2023-02-11T12:00:35;49.72;;;28.40;;
45206;SDS011;30950;53.086;21.576;2023-02-11T12:05:46;51.97;;;30.55;;
45206;SDS011;30950;53.086;21.576;2023-02-11T12:22:00;51.90;;;28.85;;
45206;SDS011;30950;53.086;21.576;2023-02-11T12:24:52;44.97;;;25.17;;
45206;SDS011;30950;53.086;21.576;2023-02-11T12:27:49;55.78;;;30.60;;
45206;SDS011;30950;53.086;21.576;2023-02-11T12:30:37;52.95;;;29.23;;
45206;SDS011;30950;53.086;21.576;2023-02-11T12:41:49;49.95;;;29.15;;
45206;SDS011;30950;53.086;21.576;2023-02-11T12:53:00;71.13;;;36.75;;
45206;SDS011;30950;53.086;21.576;2023-02-11T12:55:49;51.05;;;28.88;;
45206;SDS011;30950;53.086;21.576;2023-02-11T12:58:21;61.85;;;33.85;;
45206;SDS011;30950;53.086;21.576;2023-02-11T13:03:53;47.92;;;27.38;;
45206;SDS011;30950;53.086;21.576;2023-02-11T13:06:33;39.53;;;24.30;;
45206;SDS011;30950;53.086;21.576;2023-02-11T13:09:10;44.35;;;24.48;;
45206;SDS011;30950;53.086;21.576;2023-02-11T13:11:45;73.22;;;33.33;;
45206;SDS011;30950;53.086;21.576;2023-02-11T13:14:27;48.25;;;27.40;;
45206;SDS011;30950;53.086;21.576;2023-02-11T13:16:55;84.00;;;40.08;;
45206;SDS011;30950;53.086;21.576;2023-02-11T13:19:25;82.25;;;39.53;;
45206;SDS011;30950;53.086;21.576;2023-02-11T13:35:30;33.92;;;18.67;;
45206;SDS011;30950;53.086;21.576;2023-02-11T13:38:21;32.90;;;20.60;;
45206;SDS011;30950;53.086;21.576;2023-02-11T13:43:27;36.78;;;23.23;;
45206;SDS011;30950;53.086;21.576;2023-02-11T13:46:01;29.98;;;18.83;;
45206;SDS011;30950;53.086;21.576;2023-02-11T13:48:37;31.27;;;18.67;;
45206;SDS011;30950;53.086;21.576;2023-02-11T13:51:12;29.23;;;18.00;;
45206;SDS011;30950;53.086;21.576;2023-02-11T13:53:48;32.65;;;19.92;;
45206;SDS011;30950;53.086;21.576;2023-02-11T13:56:35;28.63;;;16.70;;
45206;SDS011;30950;53.086;21.576;2023-02-11T14:11:03;24.00;;;14.85;;
45206;SDS011;30950;53.086;21.576;2023-02-11T14:13:35;22.08;;;14.40;;
45206;SDS011;30950;53.086;21.576;2023-02-11T14:16:22;20.35;;;12.63;;
45206;SDS011;30950;53.086;21.576;2023-02-11T14:19:04;33.00;;;21.25;;
45206;SDS011;30950;53.086;21.576;2023-02-11T14:21:33;21.08;;;12.73;;
45206;SDS011;30950;53.086;21.576;2023-02-11T14:40:33;19.95;;;12.07;;
45206;SDS011;30950;53.086;21.576;2023-02-11T14:43:12;19.70;;;12.10;;
45206;SDS011;30950;53.086;21.576;2023-02-11T14:45:48;15.68;;;10.70;;
45206;SDS011;30950;53.086;21.576;2023-02-11T14:48:19;18.63;;;10.88;;
45206;SDS011;30950;53.086;21.576;2023-02-11T14:51:14;18.58;;;11.48;;
45206;SDS011;30950;53.086;21.576;2023-02-11T14:53:55;22.65;;;12.65;;
45206;SDS011;30950;53.086;21.576;2023-02-11T14:56:27;20.25;;;12.18;;
45206;SDS011;30950;53.086;21.576;2023-02-11T14:59:00;18.75;;;11.43;;
45206;SDS011;30950;53.086;21.576;2023-02-11T15:01:30;16.40;;;10.73;;
45206;SDS011;30950;53.086;21.576;2023-02-11T15:04:03;12.82;;;8.73;;
45206;SDS011;30950;53.086;21.576;2023-02-11T15:06:35;15.32;;;10.45;;
45206;SDS011;30950;53.086;21.576;2023-02-11T15:11:46;17.17;;;10.15;;
45206;SDS011;30950;53.086;21.576;2023-02-11T15:14:21;16.33;;;10.60;;
45206;SDS011;30950;53.086;21.576;2023-02-11T15:16:55;16.58;;;10.20;;
45206;SDS011;30950;53.086;21.576;2023-02-11T15:19:27;16.25;;;9.20;;
45206;SDS011;30950;53.086;21.576;2023-02-11T15:21:59;14.73;;;8.90;;
45206;SDS011;30950;53.086;21.576;2023-02-11T15:24:28;15.25;;;9.77;;
45206;SDS011;30950;53.086;21.576;2023-02-11T15:29:35;15.73;;;9.50;;
45206;SDS011;30950;53.086;21.576;2023-02-11T15:32:05;13.98;;;8.68;;
45206;SDS011;30950;53.086;21.576;2023-02-11T15:34:54;16.40;;;9.77;;
45206;SDS011;30950;53.086;21.576;2023-02-11T15:37:26;16.02;;;10.25;;
45206;SDS011;30950;53.086;21.576;2023-02-11T15:40:07;16.48;;;10.13;;
45206;SDS011;30950;53.086;21.576;2023-02-11T15:42:37;13.43;;;8.70;;
45206;SDS011;30950;53.086;21.576;2023-02-11T15:47:56;14.85;;;10.05;;
45206;SDS011;30950;53.086;21.576;2023-02-11T15:50:29;15.13;;;9.23;;
45206;SDS011;30950;53.086;21.576;2023-02-11T15:53:00;16.15;;;9.50;;
45206;SDS011;30950;53.086;21.576;2023-02-11T15:55:31;16.65;;;9.70;;
45206;SDS011;30950;53.086;21.576;2023-02-11T15:57:59;15.80;;;8.73;;
45206;SDS011;30950;53.086;21.576;2023-02-11T16:00:30;16.13;;;9.32;;
45206;SDS011;30950;53.086;21.576;2023-02-11T16:03:04;13.25;;;8.52;;
45206;SDS011;30950;53.086;21.576;2023-02-11T16:05:35;17.95;;;10.60;;
45206;SDS011;30950;53.086;21.576;2023-02-11T16:08:19;15.55;;;8.20;;
45206;SDS011;30950;53.086;21.576;2023-02-11T16:10:56;15.45;;;9.32;;
45206;SDS011;30950;53.086;21.576;2023-02-11T16:13:29;18.70;;;10.65;;
45206;SDS011;30950;53.086;21.576;2023-02-11T16:16:01;16.90;;;10.23;;
45206;SDS011;30950;53.086;21.576;2023-02-11T16:21:11;15.43;;;9.45;;
45206;SDS011;30950;53.086;21.576;2023-02-11T16:23:42;15.07;;;9.18;;
45206;SDS011;30950;53.086;21.576;2023-02-11T16:26:36;12.40;;;8.30;;
45206;SDS011;30950;53.086;21.576;2023-02-11T16:31:39;15.20;;;9.30;;
45206;SDS011;30950;53.086;21.576;2023-02-11T16:34:16;14.15;;;8.68;;
45206;SDS011;30950;53.086;21.576;2023-02-11T16:36:46;13.02;;;7.72;;
45206;SDS011;30950;53.086;21.576;2023-02-11T16:39:15;13.00;;;7.32;;
45206;SDS011;30950;53.086;21.576;2023-02-11T16:41:47;13.50;;;7.43;;
45206;SDS011;30950;53.086;21.576;2023-02-11T16:44:18;13.70;;;8.00;;
45206;SDS011;30950;53.086;21.576;2023-02-11T16:46:45;10.38;;;7.05;;
45206;SDS011;30950;53.086;21.576;2023-02-11T16:49:17;13.55;;;9.02;;
45206;SDS011;30950;53.086;21.576;2023-02-11T16:51:49;11.75;;;7.43;;
45206;SDS011;30950;53.086;21.576;2023-02-11T16:54:19;15.27;;;7.82;;
45206;SDS011;30950;53.086;21.576;2023-02-11T16:56:46;14.35;;;8.13;;
45206;SDS011;30950;53.086;21.576;2023-02-11T16:59:14;12.82;;;6.95;;
45206;SDS011;30950;53.086;21.576;2023-02-11T17:01:41;12.10;;;7.63;;
45206;SDS011;30950;53.086;21.576;2023-02-11T17:04:14;10.73;;;7.18;;
45206;SDS011;30950;53.086;21.576;2023-02-11T17:06:44;14.18;;;7.75;;
45206;SDS011;30950;53.086;21.576;2023-02-11T17:09:15;12.90;;;8.10;;
45206;SDS011;30950;53.086;21.576;2023-02-11T17:11:45;10.90;;;7.00;;
45206;SDS011;30950;53.086;21.576;2023-02-11T17:14:12;14.00;;;6.78;;
45206;SDS011;30950;53.086;21.576;2023-02-11T17:16:40;12.10;;;7.60;;